createdAt,value
2018-12-02T00:00:30.076Z,95884.06
2018-12-02T00:03:31.413Z,95885.45
2018-12-02T00:06:01.873Z,95879.08
2018-12-02T00:08:32.084Z,95896.52
2018-12-02T00:11:02.268Z,95878.73
2018-12-02T00:13:32.485Z,95870.34
2018-12-02T00:16:03.340Z,95875.55
2018-12-02T00:18:33.803Z,95878.47
2018-12-02T00:21:04.239Z,95877.33
2018-12-02T00:23:34.404Z,95880.63
2018-12-02T00:26:05.217Z,95869.71
2018-12-02T00:28:35.932Z,95876.28
2018-12-02T00:31:06.830Z,95884.03
2018-12-02T00:33:37.383Z,95878.84
2018-12-02T00:36:08.337Z,95868.83
2018-12-02T00:38:38.907Z,95877.13
2018-12-02T00:41:09.153Z,95868.48
2018-12-02T00:43:39.715Z,95876.07
2018-12-02T00:46:10.773Z,95878.52
2018-12-02T00:48:40.912Z,95873.55
2018-12-02T00:51:11.189Z,95872.48
2018-12-02T00:53:41.652Z,95882.66
2018-12-02T00:56:10.860Z,95880.88
2018-12-02T00:58:41.572Z,95877.30
2018-12-02T01:01:12.068Z,95872.88
2018-12-02T01:03:42.358Z,95875.31
2018-12-02T01:06:14.120Z,95865.02
2018-12-02T01:08:43.796Z,95627.35
2018-12-02T01:11:14.200Z,95870.31
2018-12-02T01:13:44.712Z,95873.19
2018-12-02T01:16:15.883Z,95863.71
2018-12-02T01:18:46.180Z,95872.47
2018-12-02T01:21:16.672Z,95872.69
2018-12-02T01:23:47.181Z,95871.47
2018-12-02T01:26:17.677Z,95866.17
2018-12-02T01:28:48.393Z,95863.44
2018-12-02T01:31:18.908Z,95858.98
2018-12-02T01:33:49.778Z,95858.58
2018-12-02T01:36:20.949Z,95861.52
2018-12-02T01:38:51.449Z,95856.00
2018-12-02T01:41:21.864Z,95858.82
2018-12-02T01:43:52.345Z,95857.81
2018-12-02T01:46:23.824Z,95855.11
2018-12-02T01:48:54.456Z,95854.86
2018-12-02T01:51:24.552Z,95853.32
2018-12-02T01:53:54.761Z,95850.77
2018-12-02T01:56:25.604Z,95848.98
2018-12-02T01:58:55.877Z,95851.25
2018-12-02T02:01:26.386Z,95853.45
2018-12-02T02:03:57.076Z,95854.94
2018-12-02T02:06:28.119Z,95851.51
2018-12-02T02:08:58.505Z,95850.51
2018-12-02T02:11:29.074Z,95845.36
2018-12-02T02:13:59.292Z,95850.29
2018-12-02T02:16:30.113Z,95849.11
2018-12-02T02:19:00.448Z,95854.78
2018-12-02T02:21:31.046Z,95840.77
2018-12-02T02:24:01.609Z,95845.42
2018-12-02T02:26:32.973Z,95844.38
2018-12-02T02:29:03.477Z,95849.88
2018-12-02T02:31:34.351Z,95852.27
2018-12-02T02:34:04.663Z,95846.58
2018-12-02T02:36:36.088Z,95851.59
2018-12-02T02:39:08.206Z,95847.61
2018-12-02T02:41:38.687Z,95838.91
2018-12-02T02:44:08.902Z,95842.03
2018-12-02T02:46:40.292Z,95834.03
2018-12-02T02:49:10.426Z,95828.52
2018-12-02T02:51:41.133Z,95833.28
2018-12-02T02:54:11.422Z,95834.18
2018-12-02T02:56:42.446Z,95835.67
2018-12-02T02:59:12.934Z,95838.73
2018-12-02T03:01:43.399Z,95841.36
2018-12-02T03:04:13.717Z,95840.77
2018-12-02T03:06:44.737Z,95843.97
2018-12-02T03:09:15.508Z,95853.03
2018-12-02T03:11:46.111Z,95852.13
2018-12-02T03:14:16.642Z,95852.07
2018-12-02T03:16:47.630Z,95845.55
2018-12-02T03:19:18.013Z,95854.41
2018-12-02T03:21:48.758Z,95854.78
2018-12-02T03:24:19.452Z,95858.08
2018-12-02T03:26:50.746Z,95856.09
2018-12-02T03:29:20.972Z,95856.64
2018-12-02T03:31:51.613Z,95853.72
2018-12-02T03:34:22.088Z,95856.96
2018-12-02T03:36:52.854Z,95850.47
2018-12-02T03:39:23.327Z,95847.48
2018-12-02T03:41:53.676Z,95849.11
2018-12-02T03:44:23.929Z,95845.59
2018-12-02T03:46:54.913Z,95840.31
2018-12-02T03:49:25.307Z,95840.44
2018-12-02T03:51:55.931Z,95839.37
2018-12-02T03:54:26.232Z,95841.66
2018-12-02T03:56:57.771Z,95839.67
2018-12-02T03:59:28.183Z,95842.75
2018-12-02T04:01:58.639Z,95838.78
2018-12-02T04:04:29.306Z,95841.08
2018-12-02T04:06:59.972Z,95837.70
2018-12-02T04:09:30.311Z,95840.98
2018-12-02T04:12:00.584Z,95841.09
2018-12-02T04:14:30.912Z,95838.47
2018-12-02T04:17:01.697Z,95836.52
2018-12-02T04:19:32.206Z,95839.98
2018-12-02T04:22:02.756Z,95841.20
2018-12-02T04:24:33.487Z,95843.64
2018-12-02T04:27:04.253Z,95852.33
2018-12-02T04:29:34.580Z,95849.03
2018-12-02T04:32:05.120Z,95848.54
2018-12-02T04:34:35.388Z,95847.41
2018-12-02T04:37:05.893Z,95849.20
2018-12-02T04:39:36.051Z,95845.94
2018-12-02T04:42:06.593Z,95853.16
2018-12-02T04:44:36.909Z,95846.45
2018-12-02T04:47:08.059Z,95856.56
2018-12-02T04:49:38.338Z,95847.23
2018-12-02T04:52:08.836Z,95846.48
2018-12-02T04:54:39.320Z,95853.55
2018-12-02T04:57:10.757Z,95844.02
2018-12-02T04:59:41.401Z,95848.30
2018-12-02T05:02:11.607Z,95851.28
2018-12-02T05:04:41.320Z,95855.65
2018-12-02T05:07:11.973Z,95856.68
2018-12-02T05:09:41.614Z,95856.24
2018-12-02T05:12:11.353Z,95805.02
2018-12-02T05:14:41.204Z,95856.83
2018-12-02T05:17:11.042Z,95849.30
2018-12-02T05:19:40.947Z,95856.00
2018-12-02T05:22:10.714Z,95858.36
2018-12-02T05:24:40.509Z,95857.77
2018-12-02T05:27:10.248Z,95855.19
2018-12-02T05:29:40.008Z,95868.51
2018-12-02T05:32:09.854Z,95866.52
2018-12-02T05:34:39.584Z,95872.63
2018-12-02T05:37:09.351Z,95871.50
2018-12-02T05:39:39.129Z,95864.23
2018-12-02T05:42:13.921Z,95863.02
2018-12-02T05:44:43.626Z,95871.45
2018-12-02T05:47:13.916Z,95872.04
2018-12-02T05:49:43.633Z,95869.96
2018-12-02T05:52:13.471Z,95872.22
2018-12-02T05:54:43.300Z,95876.39
2018-12-02T05:57:13.069Z,95880.36
2018-12-02T05:59:42.867Z,95881.47
2018-12-02T06:02:12.529Z,95882.03
2018-12-02T06:04:42.309Z,95878.50
2018-12-02T06:07:12.152Z,95885.21
2018-12-02T06:09:41.766Z,95888.02
2018-12-02T06:12:11.592Z,95891.22
2018-12-02T06:14:41.436Z,95894.59
2018-12-02T06:17:11.206Z,95898.70
2018-12-02T06:19:41.017Z,95902.72
2018-12-02T06:22:10.765Z,95901.00
2018-12-02T06:24:40.549Z,95905.34
2018-12-02T06:27:11.075Z,95907.14
2018-12-02T06:29:40.839Z,95906.24
2018-12-02T06:32:10.614Z,95913.28
2018-12-02T06:34:40.568Z,95924.06
2018-12-02T06:37:10.424Z,95925.66
2018-12-02T06:39:40.714Z,95928.95
2018-12-02T06:42:11.086Z,95932.75
2018-12-02T06:44:41.713Z,95939.42
2018-12-02T06:47:13.175Z,95933.50
2018-12-02T06:49:43.234Z,95942.72
2018-12-02T06:52:13.044Z,95945.42
2018-12-02T06:54:47.825Z,95943.83
2018-12-02T06:57:25.467Z,95950.14
2018-12-02T07:00:04.657Z,95944.28
2018-12-02T07:02:52.197Z,95945.67
2018-12-02T07:05:28.202Z,95945.08
2018-12-02T07:11:46.070Z,95946.19
2018-12-02T07:14:16.933Z,95945.83
2018-12-02T07:16:46.765Z,95946.83
2018-12-02T07:19:20.934Z,95952.23
2018-12-02T07:21:56.872Z,95940.93
2018-12-02T07:24:29.372Z,95936.89
2018-12-02T07:27:01.989Z,95931.41
2018-12-02T07:29:33.187Z,95937.63
2018-12-02T07:32:03.493Z,95927.16
2018-12-02T07:34:33.399Z,95921.89
2018-12-02T07:37:07.909Z,95921.02
2018-12-02T07:40:51.083Z,95920.45
2018-12-02T07:43:21.015Z,95915.61
2018-12-02T07:45:50.706Z,95915.73
2018-12-02T07:48:20.389Z,95915.81
2018-12-02T07:50:50.226Z,95916.22
2018-12-02T07:53:20.594Z,95911.64
2018-12-02T07:55:50.539Z,95915.85
2018-12-02T07:58:20.279Z,95917.80
2018-12-02T08:00:50.072Z,95916.50
2018-12-02T08:03:19.891Z,95923.50
2018-12-02T08:05:49.615Z,95922.77
2018-12-02T08:08:19.426Z,95922.84
2018-12-02T08:10:49.194Z,95916.94
2018-12-02T08:13:19.053Z,95913.56
2018-12-02T08:15:48.870Z,95920.31
2018-12-02T08:18:18.625Z,95918.02
2018-12-02T08:20:48.411Z,95923.91
2018-12-02T08:23:18.279Z,95922.09
2018-12-02T08:25:48.300Z,95920.45
2018-12-02T08:28:18.155Z,95921.92
2018-12-02T08:30:47.941Z,95922.73
2018-12-02T08:33:17.802Z,95924.98
2018-12-02T08:35:47.643Z,95916.25
2018-12-02T08:38:17.729Z,95915.10
2018-12-02T08:40:47.621Z,95917.58
2018-12-02T08:43:17.374Z,95903.97
2018-12-02T08:45:47.115Z,95900.57
2018-12-02T08:48:17.046Z,95898.96
2018-12-02T08:50:46.966Z,95895.69
2018-12-02T08:53:16.885Z,95899.60
2018-12-02T08:55:46.679Z,95895.66
2018-12-02T08:58:16.421Z,95895.32
2018-12-02T09:00:46.261Z,95892.19
2018-12-02T09:03:16.087Z,95887.14
2018-12-02T09:05:46.034Z,95883.63
2018-12-02T09:08:15.986Z,95890.52
2018-12-02T09:10:46.404Z,95884.42
2018-12-02T09:13:16.068Z,95878.62
2018-12-02T09:15:46.036Z,95879.00
2018-12-02T09:18:16.416Z,95877.83
2018-12-02T09:20:46.920Z,95873.77
2018-12-02T09:23:17.337Z,95870.03
2018-12-02T09:25:47.652Z,95869.05
2018-12-02T09:28:19.056Z,95862.44
2018-12-02T09:30:49.133Z,95855.45
2018-12-02T09:33:19.301Z,95851.64
2018-12-02T09:35:49.871Z,95842.88
2018-12-02T09:38:21.158Z,95838.84
2018-12-02T09:40:51.497Z,95832.44
2018-12-02T09:43:21.962Z,95831.36
2018-12-02T09:45:52.509Z,95824.14
2018-12-02T09:48:22.773Z,95828.98
2018-12-02T09:50:53.275Z,95823.27
2018-12-02T09:53:23.761Z,95814.36
2018-12-02T09:55:55.105Z,95801.37
2018-12-02T09:58:28.312Z,95801.15
2018-12-02T10:01:00.761Z,95799.71
2018-12-02T10:03:31.088Z,95798.97
2018-12-02T10:06:01.661Z,95796.91
2018-12-02T10:08:32.403Z,95797.31
2018-12-02T10:11:02.801Z,95794.52
2018-12-02T10:13:33.199Z,95784.69
2018-12-02T10:16:03.548Z,95791.14
2018-12-02T10:18:34.520Z,95785.18
2018-12-02T10:21:04.758Z,95788.05
2018-12-02T10:23:34.946Z,95784.80
2018-12-02T10:26:05.315Z,95773.70
2018-12-02T10:28:36.331Z,95774.17
2018-12-02T10:31:06.824Z,95773.16
2018-12-02T10:33:37.263Z,95763.57
2018-12-02T10:36:07.697Z,95769.28
2018-12-02T10:38:41.959Z,95761.14
2018-12-02T10:41:12.342Z,95754.47
2018-12-02T10:43:42.928Z,95753.30
2018-12-02T10:46:13.506Z,95749.24
2018-12-02T10:48:44.487Z,95746.55
2018-12-02T10:51:14.818Z,95741.59
2018-12-02T10:53:45.123Z,95736.99
2018-12-02T10:56:15.617Z,95729.98
2018-12-02T10:58:49.478Z,95739.42
2018-12-02T11:01:20.319Z,95725.87
2018-12-02T11:03:50.537Z,95717.78
2018-12-02T11:06:20.789Z,95716.20
2018-12-02T11:08:51.623Z,95710.58
2018-12-02T11:11:22.047Z,95710.41
2018-12-02T11:13:52.505Z,95704.56
2018-12-02T11:16:23.028Z,95700.88
2018-12-02T11:18:53.837Z,95692.41
2018-12-02T11:21:24.606Z,95687.48
2018-12-02T11:23:55.098Z,95679.09
2018-12-02T11:26:25.564Z,95690.14
2018-12-02T11:28:56.805Z,95686.06
2018-12-02T11:31:27.126Z,95676.78
2018-12-02T11:33:57.625Z,95675.05
2018-12-02T11:36:28.091Z,95673.12
2018-12-02T11:39:00.476Z,95672.77
2018-12-02T11:41:31.128Z,95671.48
2018-12-02T11:44:01.477Z,95659.23
2018-12-02T11:46:31.725Z,95657.57
2018-12-02T11:49:02.741Z,95660.45
2018-12-02T11:51:33.166Z,95651.31
2018-12-02T11:54:03.491Z,95651.17
2018-12-02T11:56:33.941Z,95650.67
2018-12-02T11:59:09.732Z,95645.76
2018-12-02T12:01:40.309Z,95641.39
2018-12-02T12:04:10.752Z,95637.02
2018-12-02T12:06:41.299Z,95636.56
2018-12-02T12:09:12.392Z,95634.99
2018-12-02T12:11:42.728Z,95630.09
2018-12-02T12:14:13.247Z,95626.63
2018-12-02T12:16:43.656Z,95628.88
2018-12-02T12:19:14.492Z,95623.11
2018-12-02T12:21:45.124Z,95621.07
2018-12-02T12:24:15.609Z,95618.40
2018-12-02T12:26:46.328Z,95612.29
2018-12-02T12:29:17.538Z,95606.92
2018-12-02T12:31:48.050Z,95607.58
2018-12-02T12:34:18.792Z,95605.55
2018-12-02T12:36:49.254Z,95598.62
2018-12-02T12:39:21.464Z,95593.72
2018-12-02T12:41:51.956Z,95600.91
2018-12-02T12:44:22.476Z,95599.31
2018-12-02T12:46:53.193Z,95596.50
2018-12-02T12:49:23.991Z,95595.58
2018-12-02T12:51:54.281Z,95591.84
2018-12-02T12:54:25.176Z,95593.30
2018-12-02T12:56:55.765Z,95587.55
2018-12-02T12:59:27.794Z,95581.79
2018-12-02T13:02:00.096Z,95585.67
2018-12-02T13:04:29.569Z,95573.22
2018-12-02T13:07:00.150Z,95582.04
2018-12-02T13:09:31.941Z,95577.82
2018-12-02T13:12:02.865Z,95571.69
2018-12-02T13:14:35.317Z,95573.55
2018-12-02T13:17:06.191Z,95571.80
2018-12-02T13:19:37.741Z,95574.59
2018-12-02T13:22:08.654Z,95576.50
2018-12-02T13:24:40.476Z,95576.64
2018-12-02T13:27:11.141Z,95580.39
2018-12-02T13:29:42.842Z,95584.18
2018-12-02T13:32:13.208Z,95583.31
2018-12-02T13:34:42.988Z,95585.04
2018-12-02T13:37:12.803Z,95583.88
2018-12-02T13:39:44.017Z,95589.99
2018-12-02T13:42:20.177Z,95594.33
2018-12-02T13:44:50.637Z,95594.92
2018-12-02T13:47:20.676Z,95595.97
2018-12-02T13:49:51.181Z,95606.52
2018-12-02T13:52:21.018Z,95601.91
2018-12-02T13:54:50.698Z,95605.98
2018-12-02T13:57:20.555Z,95607.42
2018-12-02T13:59:50.394Z,95604.81
2018-12-02T14:02:20.213Z,95605.55
2018-12-02T14:04:50.109Z,95603.63
2018-12-02T14:07:19.802Z,95609.82
2018-12-02T14:09:49.578Z,95615.55
2018-12-02T14:12:19.477Z,95612.64
2018-12-02T14:14:49.835Z,95611.73
2018-12-02T14:17:22.300Z,95613.38
2018-12-02T14:19:52.834Z,95609.55
2018-12-02T14:22:22.722Z,95609.52
2018-12-02T14:24:52.785Z,95613.90
2018-12-02T14:27:22.633Z,95613.86
2018-12-02T14:29:56.101Z,95606.49
2018-12-02T14:32:27.118Z,95616.29
2018-12-02T14:34:56.975Z,95611.27
2018-12-02T14:37:26.800Z,95612.80
2018-12-02T14:39:57.488Z,95609.44
2018-12-02T14:42:27.242Z,95607.89
2018-12-02T14:44:57.045Z,95608.13
2018-12-02T14:47:26.807Z,95608.42
2018-12-02T14:49:56.536Z,95607.95
2018-12-02T14:52:26.331Z,95607.25
2018-12-02T14:54:56.023Z,95609.28
2018-12-02T14:57:25.805Z,95610.21
2018-12-02T14:59:55.548Z,95612.18
2018-12-02T15:02:25.401Z,95617.68
2018-12-02T15:04:55.277Z,95612.47
2018-12-02T15:07:25.134Z,95615.66
2018-12-02T15:09:54.883Z,95619.47
2018-12-02T15:12:24.692Z,95622.54
2018-12-02T15:14:54.537Z,95623.80
2018-12-02T15:17:24.366Z,95626.82
2018-12-02T15:19:54.182Z,95628.95
2018-12-02T15:22:24.092Z,95644.12
2018-12-02T15:24:53.954Z,95641.72
2018-12-02T15:27:23.810Z,95629.27
2018-12-02T15:29:53.681Z,95631.94
2018-12-02T15:32:23.503Z,95633.72
2018-12-02T15:34:53.296Z,95638.14
2018-12-02T15:37:23.139Z,95638.86
2018-12-02T15:39:52.976Z,95638.11
2018-12-02T15:42:23.289Z,95638.11
2018-12-02T15:44:53.150Z,95642.15
2018-12-02T15:47:23.003Z,95637.98
2018-12-02T15:49:52.770Z,95645.03
2018-12-02T15:52:22.537Z,95646.44
2018-12-02T15:54:52.338Z,95645.50
2018-12-02T15:57:22.093Z,95649.27
2018-12-02T15:59:52.007Z,95649.31
2018-12-02T16:02:21.906Z,95649.13
2018-12-02T16:04:51.897Z,95652.53
2018-12-02T16:07:22.116Z,95654.58
2018-12-02T16:09:52.043Z,95674.42
2018-12-02T16:12:21.853Z,95657.10
2018-12-02T16:14:51.868Z,95660.92
2018-12-02T16:17:21.582Z,95665.69
2018-12-02T16:19:51.456Z,95669.84
2018-12-02T16:22:21.273Z,95667.33
2018-12-02T16:24:51.093Z,95674.68
2018-12-02T16:27:20.872Z,95672.27
2018-12-02T16:29:50.653Z,95679.70
2018-12-02T16:32:20.496Z,95683.78
2018-12-02T16:34:50.264Z,95679.02
2018-12-02T16:37:20.114Z,95684.61
2018-12-02T16:39:49.944Z,95687.75
2018-12-02T16:42:19.810Z,95688.41
2018-12-02T16:44:49.911Z,95689.70
2018-12-02T16:47:19.769Z,95687.03
2018-12-02T16:49:49.495Z,95685.48
2018-12-02T16:52:19.252Z,95689.23
2018-12-02T16:54:49.157Z,95688.22
2018-12-02T16:57:19.237Z,95694.47
2018-12-02T16:59:49.156Z,95691.33
2018-12-02T17:02:19.098Z,95685.03
2018-12-02T17:04:48.863Z,95691.28
2018-12-02T17:07:18.803Z,95689.33
2018-12-02T17:09:48.692Z,95686.98
2018-12-02T17:12:18.476Z,95689.08
2018-12-02T17:14:48.230Z,95690.00
2018-12-02T17:17:17.965Z,95690.84
2018-12-02T17:19:47.845Z,95691.88
2018-12-02T17:22:17.724Z,95684.95
2018-12-02T17:24:47.469Z,95691.74
2018-12-02T17:27:17.155Z,95691.19
2018-12-02T17:29:47.105Z,95698.44
2018-12-02T17:32:16.906Z,95700.74
2018-12-02T17:34:46.751Z,95699.02
2018-12-02T17:37:16.556Z,95704.35
2018-12-02T17:39:49.268Z,95707.94
2018-12-02T17:42:18.989Z,95707.84
2018-12-02T17:44:48.888Z,95705.23
2018-12-02T17:47:18.768Z,95708.16
2018-12-02T17:49:49.647Z,95710.32
2018-12-02T17:52:19.478Z,95710.88
2018-12-02T17:54:49.320Z,95714.38
2018-12-02T17:57:18.955Z,95715.91
2018-12-02T17:59:49.080Z,95719.53
2018-12-02T18:02:18.859Z,95723.42
2018-12-02T18:04:48.726Z,95722.78
2018-12-02T18:07:18.614Z,95726.73
2018-12-02T18:09:48.238Z,95723.69
2018-12-02T18:12:18.896Z,95716.52
2018-12-02T18:14:49.443Z,95715.34
2018-12-02T18:17:19.140Z,95719.86
2018-12-02T18:19:50.392Z,95719.64
2018-12-02T18:22:20.217Z,95722.95
2018-12-02T18:24:50.097Z,95721.37
2018-12-02T18:27:19.919Z,95725.67
2018-12-02T18:29:50.846Z,95726.48
2018-12-02T18:32:20.759Z,95726.13
2018-12-02T18:34:50.616Z,95729.47
2018-12-02T18:37:20.451Z,95735.38
2018-12-02T18:39:50.818Z,95736.04
2018-12-02T18:42:20.824Z,95734.16
2018-12-02T18:44:50.712Z,95734.00
2018-12-02T18:47:21.063Z,95738.63
2018-12-02T18:49:52.060Z,95742.87
2018-12-02T18:52:21.894Z,95746.14
2018-12-02T18:54:51.807Z,95750.89
2018-12-02T18:57:22.423Z,95749.39
2018-12-02T18:59:52.868Z,95755.16
2018-12-02T19:02:22.680Z,95753.47
2018-12-02T19:04:52.384Z,95758.02
2018-12-02T19:07:22.230Z,95752.89
2018-12-02T19:09:51.801Z,95752.17
2018-12-02T19:12:21.721Z,95758.70
2018-12-02T19:14:51.669Z,95756.81
2018-12-02T19:17:21.521Z,95762.41
2018-12-02T19:19:51.269Z,95759.92
2018-12-02T19:22:21.092Z,95758.22
2018-12-02T19:24:51.010Z,95761.48
2018-12-02T19:27:20.801Z,95762.39
2018-12-02T19:29:50.589Z,95764.16
2018-12-02T19:32:20.545Z,95763.39
2018-12-02T19:34:50.404Z,95764.41
2018-12-02T19:37:20.265Z,95768.86
2018-12-02T19:39:50.067Z,95764.58
2018-12-02T19:42:19.930Z,95772.22
2018-12-02T19:44:49.912Z,95770.17
2018-12-02T19:47:19.786Z,95771.99
2018-12-02T19:49:49.800Z,95773.01
2018-12-02T19:52:19.643Z,95778.24
2018-12-02T19:54:49.487Z,95777.52
2018-12-02T19:57:19.342Z,95782.83
2018-12-02T19:59:49.166Z,95774.32
2018-12-02T20:02:18.924Z,95785.34
2018-12-02T20:04:48.892Z,95779.22
2018-12-02T20:07:18.767Z,95779.88
2018-12-02T20:09:48.622Z,95779.71
2018-12-02T20:12:18.373Z,95771.02
2018-12-02T20:14:48.180Z,95774.90
2018-12-02T20:17:18.047Z,95768.33
2018-12-02T20:19:52.960Z,95764.19
2018-12-02T20:22:22.688Z,95769.27
2018-12-02T20:24:52.615Z,95772.31
2018-12-02T20:27:22.317Z,95775.75
2018-12-02T20:29:52.933Z,95776.64
2018-12-02T20:32:22.678Z,95777.32
2018-12-02T20:34:52.517Z,95777.58
2018-12-02T20:37:22.352Z,95778.52
2018-12-02T20:39:52.214Z,95781.70
2018-12-02T20:42:22.449Z,95774.31
2018-12-02T20:44:52.882Z,95776.02
2018-12-02T20:47:22.047Z,95776.81
2018-12-02T20:49:52.178Z,95770.05
2018-12-02T20:52:22.113Z,95774.89
2018-12-02T20:54:51.997Z,95770.37
2018-12-02T20:57:21.809Z,95765.23
2018-12-02T20:59:51.712Z,95771.84
2018-12-02T21:02:21.357Z,95770.95
2018-12-02T21:04:51.189Z,95773.38
2018-12-02T21:07:20.925Z,95772.27
2018-12-02T21:09:50.684Z,95769.65
2018-12-02T21:12:20.385Z,95763.98
2018-12-02T21:14:50.227Z,95766.17
2018-12-02T21:17:20.024Z,95767.80
2018-12-02T21:19:49.769Z,95766.58
2018-12-02T21:22:19.508Z,95766.11
2018-12-02T21:24:49.440Z,95765.92
2018-12-02T21:27:19.273Z,95768.09
2018-12-02T21:29:49.010Z,95767.99
2018-12-02T21:32:22.506Z,95773.18
2018-12-02T21:34:50.353Z,95774.05
2018-12-02T21:37:20.859Z,95767.66
2018-12-02T21:39:51.681Z,95762.67
2018-12-02T21:42:21.596Z,95758.02
2018-12-02T21:44:51.422Z,95761.52
2018-12-02T21:47:21.465Z,95755.86
2018-12-02T21:49:52.920Z,95755.91
2018-12-02T21:52:23.851Z,95755.84
2018-12-02T21:54:54.039Z,95749.14
2018-12-02T21:57:24.858Z,95751.84
2018-12-02T21:59:55.420Z,95743.17
2018-12-02T22:02:25.833Z,95745.48
2018-12-02T22:04:56.383Z,95746.59
2018-12-02T22:07:26.557Z,95745.44
2018-12-02T22:09:57.538Z,95744.34
2018-12-02T22:12:27.970Z,95751.20
2018-12-02T22:14:57.875Z,95755.28
2018-12-02T22:17:29.104Z,95753.67
2018-12-02T22:20:00.965Z,95756.00
2018-12-02T22:22:31.698Z,95752.75
2018-12-02T22:25:02.154Z,95754.79
2018-12-02T22:27:32.783Z,95754.32
2018-12-02T22:30:03.783Z,95752.78
2018-12-02T22:32:34.324Z,95750.69
2018-12-02T22:35:04.946Z,95744.92
2018-12-02T22:37:35.292Z,95744.30
2018-12-02T22:40:08.549Z,95738.70
2018-12-02T22:42:39.135Z,95736.62
2018-12-02T22:45:12.372Z,95739.44
2018-12-02T22:47:42.636Z,95736.62
2018-12-02T22:50:17.361Z,95736.34
2018-12-02T22:52:49.432Z,95734.80
2018-12-02T22:55:19.672Z,95729.69
2018-12-02T22:57:50.222Z,95725.83
2018-12-02T23:00:33.675Z,95723.49
2018-12-02T23:03:05.450Z,95724.30
2018-12-02T23:05:36.098Z,95717.44
2018-12-02T23:08:06.637Z,95716.43
2018-12-02T23:10:37.083Z,95723.76
2018-12-02T23:13:08.159Z,95720.13
2018-12-02T23:15:38.690Z,95724.52
2018-12-02T23:18:10.133Z,95719.27
2018-12-02T23:20:40.258Z,95713.55
2018-12-02T23:23:10.396Z,95710.02
2018-12-02T23:25:40.950Z,95704.79
2018-12-02T23:28:11.604Z,95706.81
2018-12-02T23:30:42.480Z,95706.45
2018-12-02T23:33:13.180Z,95708.06
2018-12-02T23:35:43.541Z,95713.80
2018-12-02T23:38:14.156Z,95709.31
2018-12-02T23:40:44.769Z,95707.76
2018-12-02T23:43:14.668Z,95708.99
2018-12-02T23:45:45.065Z,95722.02
2018-12-02T23:48:14.256Z,95706.59
2018-12-02T23:50:44.110Z,95697.92
2018-12-02T23:53:14.342Z,95703.84
2018-12-02T23:55:44.254Z,95707.60
2018-12-02T23:58:14.087Z,95709.34
